sensor_id;sensor_type;location;lat;lon;timestamp;temperature;humidity
35680;DHT22;21803;53.586;10.040;2023-02-05T00:01:20;18.10;44.50
35680;DHT22;21803;53.586;10.040;2023-02-05T00:03:46;18.10;44.50
35680;DHT22;21803;53.586;10.040;2023-02-05T00:06:12;18.10;44.50
35680;DHT22;21803;53.586;10.040;2023-02-05T00:08:37;18.10;44.50
35680;DHT22;21803;53.586;10.040;2023-02-05T00:11:03;18.10;44.50
35680;DHT22;21803;53.586;10.040;2023-02-05T00:13:34;18.10;44.50
35680;DHT22;21803;53.586;10.040;2023-02-05T00:16:05;18.10;44.50
35680;DHT22;21803;53.586;10.040;2023-02-05T00:18:31;18.10;44.50
35680;DHT22;21803;53.586;10.040;2023-02-05T00:20:56;18.00;44.40
35680;DHT22;21803;53.586;10.040;2023-02-05T00:23:22;18.10;44.50
35680;DHT22;21803;53.586;10.040;2023-02-05T00:25:47;18.00;45.00
35680;DHT22;21803;53.586;10.040;2023-02-05T00:28:13;19.80;45.30
35680;DHT22;21803;53.586;10.040;2023-02-05T00:30:39;18.00;44.40
35680;DHT22;21803;53.586;10.040;2023-02-05T00:33:05;18.10;44.40
35680;DHT22;21803;53.586;10.040;2023-02-05T00:35:31;18.10;44.40
35680;DHT22;21803;53.586;10.040;2023-02-05T00:37:56;18.00;44.40
35680;DHT22;21803;53.586;10.040;2023-02-05T00:40:21;18.10;44.40
35680;DHT22;21803;53.586;10.040;2023-02-05T00:42:47;18.10;44.40
35680;DHT22;21803;53.586;10.040;2023-02-05T00:45:13;18.10;44.40
35680;DHT22;21803;53.586;10.040;2023-02-05T00:47:38;18.10;44.40
35680;DHT22;21803;53.586;10.040;2023-02-05T00:50:04;18.10;44.50
35680;DHT22;21803;53.586;10.040;2023-02-05T00:52:30;18.10;44.50
35680;DHT22;21803;53.586;10.040;2023-02-05T00:54:55;18.10;44.50
35680;DHT22;21803;53.586;10.040;2023-02-05T00:57:21;18.10;44.50
35680;DHT22;21803;53.586;10.040;2023-02-05T00:59:50;18.00;44.40
35680;DHT22;21803;53.586;10.040;2023-02-05T01:02:17;18.10;44.40
35680;DHT22;21803;53.586;10.040;2023-02-05T01:04:48;18.10;44.40
35680;DHT22;21803;53.586;10.040;2023-02-05T01:07:14;18.10;44.50
35680;DHT22;21803;53.586;10.040;2023-02-05T01:09:40;18.10;44.40
35680;DHT22;21803;53.586;10.040;2023-02-05T01:12:05;18.10;44.40
35680;DHT22;21803;53.586;10.040;2023-02-05T01:14:31;18.10;44.50
35680;DHT22;21803;53.586;10.040;2023-02-05T01:16:56;18.10;44.40
35680;DHT22;21803;53.586;10.040;2023-02-05T01:19:22;18.00;44.40
35680;DHT22;21803;53.586;10.040;2023-02-05T01:21:47;18.10;44.40
35680;DHT22;21803;53.586;10.040;2023-02-05T01:24:13;18.10;44.40
35680;DHT22;21803;53.586;10.040;2023-02-05T01:26:38;18.10;44.40
35680;DHT22;21803;53.586;10.040;2023-02-05T01:29:04;18.10;44.40
35680;DHT22;21803;53.586;10.040;2023-02-05T01:31:29;18.10;44.40
35680;DHT22;21803;53.586;10.040;2023-02-05T01:33:55;18.10;44.40
35680;DHT22;21803;53.586;10.040;2023-02-05T01:36:21;18.10;44.50
35680;DHT22;21803;53.586;10.040;2023-02-05T01:38:46;18.10;44.50
35680;DHT22;21803;53.586;10.040;2023-02-05T01:41:13;18.10;45.00
35680;DHT22;21803;53.586;10.040;2023-02-05T01:43:38;18.10;44.40
35680;DHT22;21803;53.586;10.040;2023-02-05T01:46:18;18.10;44.40
35680;DHT22;21803;53.586;10.040;2023-02-05T01:48:48;18.10;44.40
35680;DHT22;21803;53.586;10.040;2023-02-05T01:51:15;18.00;44.40
35680;DHT22;21803;53.586;10.040;2023-02-05T01:53:43;18.00;44.30
35680;DHT22;21803;53.586;10.040;2023-02-05T01:56:20;18.10;44.40
35680;DHT22;21803;53.586;10.040;2023-02-05T01:58:54;18.10;44.40
35680;DHT22;21803;53.586;10.040;2023-02-05T02:01:21;18.00;44.40
35680;DHT22;21803;53.586;10.040;2023-02-05T02:03:47;18.00;44.40
35680;DHT22;21803;53.586;10.040;2023-02-05T02:06:13;18.00;44.40
35680;DHT22;21803;53.586;10.040;2023-02-05T02:08:39;18.00;44.40
35680;DHT22;21803;53.586;10.040;2023-02-05T02:11:06;18.10;44.40
35680;DHT22;21803;53.586;10.040;2023-02-05T02:13:35;18.00;44.30
35680;DHT22;21803;53.586;10.040;2023-02-05T02:16:01;18.00;44.40
35680;DHT22;21803;53.586;10.040;2023-02-05T02:18:28;18.00;44.40
35680;DHT22;21803;53.586;10.040;2023-02-05T02:29:24;18.10;44.40
35680;DHT22;21803;53.586;10.040;2023-02-05T02:32:02;18.10;44.40
35680;DHT22;21803;53.586;10.040;2023-02-05T02:34:44;18.00;45.00
35680;DHT22;21803;53.586;10.040;2023-02-05T02:37:17;18.00;44.40
35680;DHT22;21803;53.586;10.040;2023-02-05T02:39:58;18.00;44.40
35680;DHT22;21803;53.586;10.040;2023-02-05T02:42:40;18.10;44.50
35680;DHT22;21803;53.586;10.040;2023-02-05T02:45:08;18.00;44.40
35680;DHT22;21803;53.586;10.040;2023-02-05T02:47:44;18.00;44.40
35680;DHT22;21803;53.586;10.040;2023-02-05T02:50:16;18.00;44.40
35680;DHT22;21803;53.586;10.040;2023-02-05T02:52:45;18.10;44.50
35680;DHT22;21803;53.586;10.040;2023-02-05T02:55:13;18.00;45.00
35680;DHT22;21803;53.586;10.040;2023-02-05T02:57:42;18.00;44.40
35680;DHT22;21803;53.586;10.040;2023-02-05T03:00:12;18.00;44.40
35680;DHT22;21803;53.586;10.040;2023-02-05T03:02:40;18.00;44.40
35680;DHT22;21803;53.586;10.040;2023-02-05T03:05:14;18.00;44.40
35680;DHT22;21803;53.586;10.040;2023-02-05T03:07:45;18.00;44.40
35680;DHT22;21803;53.586;10.040;2023-02-05T03:10:22;18.00;44.40
35680;DHT22;21803;53.586;10.040;2023-02-05T03:12:50;18.00;44.40
35680;DHT22;21803;53.586;10.040;2023-02-05T03:15:15;18.00;44.40
35680;DHT22;21803;53.586;10.040;2023-02-05T03:17:41;18.00;44.40
35680;DHT22;21803;53.586;10.040;2023-02-05T03:20:24;18.00;44.30
35680;DHT22;21803;53.586;10.040;2023-02-05T03:22:50;18.00;44.40
35680;DHT22;21803;53.586;10.040;2023-02-05T03:25:21;18.00;44.30
35680;DHT22;21803;53.586;10.040;2023-02-05T03:27:47;18.00;44.30
35680;DHT22;21803;53.586;10.040;2023-02-05T03:30:15;18.00;44.30
35680;DHT22;21803;53.586;10.040;2023-02-05T03:47:34;18.00;44.30
35680;DHT22;21803;53.586;10.040;2023-02-05T03:50:20;18.00;44.20
35680;DHT22;21803;53.586;10.040;2023-02-05T03:53:26;18.00;44.20
35680;DHT22;21803;53.586;10.040;2023-02-05T03:56:02;18.00;44.30
35680;DHT22;21803;53.586;10.040;2023-02-05T03:58:41;18.00;44.20
35680;DHT22;21803;53.586;10.040;2023-02-05T04:01:09;18.00;44.30
35680;DHT22;21803;53.586;10.040;2023-02-05T04:03:36;18.00;44.20
35680;DHT22;21803;53.586;10.040;2023-02-05T04:06:01;18.00;44.20
35680;DHT22;21803;53.586;10.040;2023-02-05T04:08:27;18.00;44.20
35680;DHT22;21803;53.586;10.040;2023-02-05T04:10:52;18.00;44.20
35680;DHT22;21803;53.586;10.040;2023-02-05T04:13:18;18.00;44.20
35680;DHT22;21803;53.586;10.040;2023-02-05T04:15:43;18.00;44.20
35680;DHT22;21803;53.586;10.040;2023-02-05T04:18:09;18.00;44.20
35680;DHT22;21803;53.586;10.040;2023-02-05T04:20:34;18.00;44.20
35680;DHT22;21803;53.586;10.040;2023-02-05T04:23:00;18.00;44.20
35680;DHT22;21803;53.586;10.040;2023-02-05T04:25:25;18.00;44.20
35680;DHT22;21803;53.586;10.040;2023-02-05T04:27:52;18.00;44.10
35680;DHT22;21803;53.586;10.040;2023-02-05T04:30:18;18.00;44.10
35680;DHT22;21803;53.586;10.040;2023-02-05T04:32:43;18.00;44.10
35680;DHT22;21803;53.586;10.040;2023-02-05T04:35:09;18.00;44.10
35680;DHT22;21803;53.586;10.040;2023-02-05T04:37:35;18.00;44.10
35680;DHT22;21803;53.586;10.040;2023-02-05T04:40:00;18.00;44.70
35680;DHT22;21803;53.586;10.040;2023-02-05T04:42:26;18.00;44.10
35680;DHT22;21803;53.586;10.040;2023-02-05T04:44:51;18.00;44.10
35680;DHT22;21803;53.586;10.040;2023-02-05T04:47:18;18.00;44.10
35680;DHT22;21803;53.586;10.040;2023-02-05T04:49:44;18.00;44.10
35680;DHT22;21803;53.586;10.040;2023-02-05T04:52:09;18.00;44.10
35680;DHT22;21803;53.586;10.040;2023-02-05T04:54:38;18.00;44.10
35680;DHT22;21803;53.586;10.040;2023-02-05T04:57:04;18.00;44.00
35680;DHT22;21803;53.586;10.040;2023-02-05T04:59:29;18.00;44.10
35680;DHT22;21803;53.586;10.040;2023-02-05T05:01:56;18.00;44.10
35680;DHT22;21803;53.586;10.040;2023-02-05T05:04:22;18.00;44.00
35680;DHT22;21803;53.586;10.040;2023-02-05T05:06:47;18.00;44.00
35680;DHT22;21803;53.586;10.040;2023-02-05T05:09:13;18.00;44.10
35680;DHT22;21803;53.586;10.040;2023-02-05T05:11:39;18.00;44.00
35680;DHT22;21803;53.586;10.040;2023-02-05T05:14:04;18.00;44.00
35680;DHT22;21803;53.586;10.040;2023-02-05T05:16:30;18.00;44.00
35680;DHT22;21803;53.586;10.040;2023-02-05T05:18:55;18.00;44.00
35680;DHT22;21803;53.586;10.040;2023-02-05T05:21:21;18.00;44.00
35680;DHT22;21803;53.586;10.040;2023-02-05T05:23:46;18.00;44.00
35680;DHT22;21803;53.586;10.040;2023-02-05T05:26:12;18.00;43.90
35680;DHT22;21803;53.586;10.040;2023-02-05T05:28:38;18.00;44.00
35680;DHT22;21803;53.586;10.040;2023-02-05T05:31:08;18.00;43.90
35680;DHT22;21803;53.586;10.040;2023-02-05T05:33:34;18.00;44.00
35680;DHT22;21803;53.586;10.040;2023-02-05T05:36:00;18.00;43.90
35680;DHT22;21803;53.586;10.040;2023-02-05T05:38:26;18.00;43.90
35680;DHT22;21803;53.586;10.040;2023-02-05T05:40:51;18.00;43.90
35680;DHT22;21803;53.586;10.040;2023-02-05T05:43:36;17.90;43.90
35680;DHT22;21803;53.586;10.040;2023-02-05T05:46:19;18.00;43.90
35680;DHT22;21803;53.586;10.040;2023-02-05T05:48:48;18.00;43.90
35680;DHT22;21803;53.586;10.040;2023-02-05T05:51:14;18.00;43.90
35680;DHT22;21803;53.586;10.040;2023-02-05T05:53:40;18.00;43.90
35680;DHT22;21803;53.586;10.040;2023-02-05T05:56:06;18.00;43.90
35680;DHT22;21803;53.586;10.040;2023-02-05T05:58:31;18.00;43.90
35680;DHT22;21803;53.586;10.040;2023-02-05T06:00:57;18.00;43.90
35680;DHT22;21803;53.586;10.040;2023-02-05T06:03:22;17.80;43.80
35680;DHT22;21803;53.586;10.040;2023-02-05T06:05:48;18.00;43.90
35680;DHT22;21803;53.586;10.040;2023-02-05T06:08:14;18.00;43.90
35680;DHT22;21803;53.586;10.040;2023-02-05T06:10:40;18.00;43.90
35680;DHT22;21803;53.586;10.040;2023-02-05T06:13:06;18.00;43.90
35680;DHT22;21803;53.586;10.040;2023-02-05T06:15:32;18.00;43.80
35680;DHT22;21803;53.586;10.040;2023-02-05T06:17:57;18.00;43.80
35680;DHT22;21803;53.586;10.040;2023-02-05T06:20:23;18.00;43.80
35680;DHT22;21803;53.586;10.040;2023-02-05T06:22:48;17.90;43.80
35680;DHT22;21803;53.586;10.040;2023-02-05T06:25:14;18.00;43.80
35680;DHT22;21803;53.586;10.040;2023-02-05T06:27:40;18.00;43.80
35680;DHT22;21803;53.586;10.040;2023-02-05T06:30:06;18.00;43.80
35680;DHT22;21803;53.586;10.040;2023-02-05T06:32:31;18.00;43.80
35680;DHT22;21803;53.586;10.040;2023-02-05T06:34:57;18.00;43.80
35680;DHT22;21803;53.586;10.040;2023-02-05T06:37:22;17.90;43.80
35680;DHT22;21803;53.586;10.040;2023-02-05T06:39:50;18.00;43.80
35680;DHT22;21803;53.586;10.040;2023-02-05T06:42:16;18.00;43.80
35680;DHT22;21803;53.586;10.040;2023-02-05T06:44:41;18.00;43.80
35680;DHT22;21803;53.586;10.040;2023-02-05T06:47:07;18.00;43.80
35680;DHT22;21803;53.586;10.040;2023-02-05T06:49:32;17.90;43.70
35680;DHT22;21803;53.586;10.040;2023-02-05T06:51:59;17.90;43.70
35680;DHT22;21803;53.586;10.040;2023-02-05T06:54:24;18.00;43.80
35680;DHT22;21803;53.586;10.040;2023-02-05T06:56:50;18.00;43.80
35680;DHT22;21803;53.586;10.040;2023-02-05T06:59:15;17.90;43.70
35680;DHT22;21803;53.586;10.040;2023-02-05T07:01:41;18.00;43.70
35680;DHT22;21803;53.586;10.040;2023-02-05T07:04:06;18.00;43.70
35680;DHT22;21803;53.586;10.040;2023-02-05T07:06:32;18.00;43.80
35680;DHT22;21803;53.586;10.040;2023-02-05T07:08:57;18.00;43.70
35680;DHT22;21803;53.586;10.040;2023-02-05T07:11:24;17.90;43.70
35680;DHT22;21803;53.586;10.040;2023-02-05T07:13:49;18.00;43.80
35680;DHT22;21803;53.586;10.040;2023-02-05T07:16:15;18.00;43.80
35680;DHT22;21803;53.586;10.040;2023-02-05T07:18:40;18.00;43.70
35680;DHT22;21803;53.586;10.040;2023-02-05T07:21:08;17.90;43.60
35680;DHT22;21803;53.586;10.040;2023-02-05T07:23:34;17.90;43.60
35680;DHT22;21803;53.586;10.040;2023-02-05T07:26:10;17.90;43.60
35680;DHT22;21803;53.586;10.040;2023-02-05T07:28:36;18.00;43.70
35680;DHT22;21803;53.586;10.040;2023-02-05T07:31:07;17.90;43.60
35680;DHT22;21803;53.586;10.040;2023-02-05T07:33:33;17.90;43.60
35680;DHT22;21803;53.586;10.040;2023-02-05T07:36:06;18.00;43.70
35680;DHT22;21803;53.586;10.040;2023-02-05T07:38:33;17.90;43.60
35680;DHT22;21803;53.586;10.040;2023-02-05T07:41:01;17.90;43.60
35680;DHT22;21803;53.586;10.040;2023-02-05T07:43:27;18.00;43.70
35680;DHT22;21803;53.586;10.040;2023-02-05T07:45:56;17.90;43.60
35680;DHT22;21803;53.586;10.040;2023-02-05T07:48:22;17.90;43.60
35680;DHT22;21803;53.586;10.040;2023-02-05T07:50:48;18.00;43.70
35680;DHT22;21803;53.586;10.040;2023-02-05T07:53:13;17.90;43.60
35680;DHT22;21803;53.586;10.040;2023-02-05T07:55:39;17.90;43.60
35680;DHT22;21803;53.586;10.040;2023-02-05T07:58:04;17.90;43.60
35680;DHT22;21803;53.586;10.040;2023-02-05T08:00:30;18.00;43.60
35680;DHT22;21803;53.586;10.040;2023-02-05T08:02:56;18.00;43.70
35680;DHT22;21803;53.586;10.040;2023-02-05T08:05:22;17.90;43.60
35680;DHT22;21803;53.586;10.040;2023-02-05T08:07:48;18.00;43.60
35680;DHT22;21803;53.586;10.040;2023-02-05T08:10:14;18.00;43.60
35680;DHT22;21803;53.586;10.040;2023-02-05T08:12:40;18.00;43.60
35680;DHT22;21803;53.586;10.040;2023-02-05T08:15:05;17.90;43.50
35680;DHT22;21803;53.586;10.040;2023-02-05T08:17:31;17.90;43.50
35680;DHT22;21803;53.586;10.040;2023-02-05T08:19:56;17.90;43.50
35680;DHT22;21803;53.586;10.040;2023-02-05T08:22:24;18.30;43.70
35680;DHT22;21803;53.586;10.040;2023-02-05T08:24:49;18.00;43.60
35680;DHT22;21803;53.586;10.040;2023-02-05T08:27:15;18.00;43.60
35680;DHT22;21803;53.586;10.040;2023-02-05T08:29:41;18.00;43.60
35680;DHT22;21803;53.586;10.040;2023-02-05T08:32:06;17.90;43.50
35680;DHT22;21803;53.586;10.040;2023-02-05T08:34:32;17.90;43.50
35680;DHT22;21803;53.586;10.040;2023-02-05T08:36:58;17.90;43.50
35680;DHT22;21803;53.586;10.040;2023-02-05T08:39:24;17.90;43.50
35680;DHT22;21803;53.586;10.040;2023-02-05T08:41:50;18.00;43.60
35680;DHT22;21803;53.586;10.040;2023-02-05T08:44:16;18.00;43.50
35680;DHT22;21803;53.586;10.040;2023-02-05T08:46:41;18.00;43.50
35680;DHT22;21803;53.586;10.040;2023-02-05T08:49:07;17.90;43.50
35680;DHT22;21803;53.586;10.040;2023-02-05T08:51:32;18.00;43.50
35680;DHT22;21803;53.586;10.040;2023-02-05T08:53:59;18.00;43.50
35680;DHT22;21803;53.586;10.040;2023-02-05T08:56:25;18.00;43.50
35680;DHT22;21803;53.586;10.040;2023-02-05T08:58:50;18.00;43.50
35680;DHT22;21803;53.586;10.040;2023-02-05T09:01:16;18.00;43.50
35680;DHT22;21803;53.586;10.040;2023-02-05T09:03:43;18.00;43.50
35680;DHT22;21803;53.586;10.040;2023-02-05T09:06:12;18.00;43.50
35680;DHT22;21803;53.586;10.040;2023-02-05T09:08:38;18.00;43.50
35680;DHT22;21803;53.586;10.040;2023-02-05T09:11:04;18.00;43.50
35680;DHT22;21803;53.586;10.040;2023-02-05T09:13:30;18.00;43.50
35680;DHT22;21803;53.586;10.040;2023-02-05T09:15:56;18.10;44.10
35680;DHT22;21803;53.586;10.040;2023-02-05T09:18:22;18.00;43.40
35680;DHT22;21803;53.586;10.040;2023-02-05T09:20:49;18.00;43.50
35680;DHT22;21803;53.586;10.040;2023-02-05T09:23:16;18.00;43.40
35680;DHT22;21803;53.586;10.040;2023-02-05T09:25:42;18.00;43.40
35680;DHT22;21803;53.586;10.040;2023-02-05T09:28:10;18.00;43.40
35680;DHT22;21803;53.586;10.040;2023-02-05T09:30:40;18.00;43.40
35680;DHT22;21803;53.586;10.040;2023-02-05T09:33:06;18.00;43.40
35680;DHT22;21803;53.586;10.040;2023-02-05T09:35:33;18.00;43.40
35680;DHT22;21803;53.586;10.040;2023-02-05T09:37:59;18.00;43.40
35680;DHT22;21803;53.586;10.040;2023-02-05T09:45:57;18.00;43.40
35680;DHT22;21803;53.586;10.040;2023-02-05T09:48:47;18.00;43.30
35680;DHT22;21803;53.586;10.040;2023-02-05T09:51:34;18.00;43.30
35680;DHT22;21803;53.586;10.040;2023-02-05T09:54:14;18.00;43.90
35680;DHT22;21803;53.586;10.040;2023-02-05T09:56:42;18.00;43.30
35680;DHT22;21803;53.586;10.040;2023-02-05T09:59:14;18.00;43.30
35680;DHT22;21803;53.586;10.040;2023-02-05T10:01:59;18.00;43.30
35680;DHT22;21803;53.586;10.040;2023-02-05T10:04:25;18.00;43.30
35680;DHT22;21803;53.586;10.040;2023-02-05T10:06:55;18.00;43.30
35680;DHT22;21803;53.586;10.040;2023-02-05T10:11:58;18.00;43.30
35680;DHT22;21803;53.586;10.040;2023-02-05T10:20:02;18.00;43.30
35680;DHT22;21803;53.586;10.040;2023-02-05T10:30:54;18.00;43.20
35680;DHT22;21803;53.586;10.040;2023-02-05T10:36:13;18.00;43.20
35680;DHT22;21803;53.586;10.040;2023-02-05T10:38:44;18.00;43.20
35680;DHT22;21803;53.586;10.040;2023-02-05T10:41:26;18.00;43.20
35680;DHT22;21803;53.586;10.040;2023-02-05T10:44:00;18.00;43.30
35680;DHT22;21803;53.586;10.040;2023-02-05T10:46:32;18.00;43.20
35680;DHT22;21803;53.586;10.040;2023-02-05T10:49:14;18.00;43.30
35680;DHT22;21803;53.586;10.040;2023-02-05T10:51:43;18.00;43.30
35680;DHT22;21803;53.586;10.040;2023-02-05T10:54:17;18.00;43.40
35680;DHT22;21803;53.586;10.040;2023-02-05T10:56:45;18.00;43.40
35680;DHT22;21803;53.586;10.040;2023-02-05T10:59:21;18.00;43.40
35680;DHT22;21803;53.586;10.040;2023-02-05T11:01:49;18.00;43.40
35680;DHT22;21803;53.586;10.040;2023-02-05T11:04:34;18.00;43.40
35680;DHT22;21803;53.586;10.040;2023-02-05T11:07:01;18.00;43.40
35680;DHT22;21803;53.586;10.040;2023-02-05T11:09:32;18.00;43.40
35680;DHT22;21803;53.586;10.040;2023-02-05T11:14:55;18.00;43.40
35680;DHT22;21803;53.586;10.040;2023-02-05T11:17:23;18.00;43.40
35680;DHT22;21803;53.586;10.040;2023-02-05T11:19:56;18.00;43.40
35680;DHT22;21803;53.586;10.040;2023-02-05T11:27:33;18.00;43.40
35680;DHT22;21803;53.586;10.040;2023-02-05T11:32:42;18.00;43.40
35680;DHT22;21803;53.586;10.040;2023-02-05T11:38:20;18.00;43.30
35680;DHT22;21803;53.586;10.040;2023-02-05T11:40:52;18.00;43.40
35680;DHT22;21803;53.586;10.040;2023-02-05T11:43:33;18.00;43.40
35680;DHT22;21803;53.586;10.040;2023-02-05T11:46:02;18.00;43.30
35680;DHT22;21803;53.586;10.040;2023-02-05T11:48:40;18.00;43.30
35680;DHT22;21803;53.586;10.040;2023-02-05T11:51:11;18.00;43.30
35680;DHT22;21803;53.586;10.040;2023-02-05T11:53:49;18.00;43.40
35680;DHT22;21803;53.586;10.040;2023-02-05T11:56:20;18.00;43.40
35680;DHT22;21803;53.586;10.040;2023-02-05T11:59:00;18.00;43.30
35680;DHT22;21803;53.586;10.040;2023-02-05T12:01:27;18.00;43.40
35680;DHT22;21803;53.586;10.040;2023-02-05T12:06:56;18.00;43.40
35680;DHT22;21803;53.586;10.040;2023-02-05T12:09:25;18.00;43.30
35680;DHT22;21803;53.586;10.040;2023-02-05T12:12:02;18.00;43.30
35680;DHT22;21803;53.586;10.040;2023-02-05T12:17:41;18.00;43.40
35680;DHT22;21803;53.586;10.040;2023-02-05T12:34:23;18.00;43.40
35680;DHT22;21803;53.586;10.040;2023-02-05T12:37:02;18.00;43.30
35680;DHT22;21803;53.586;10.040;2023-02-05T12:42:28;18.00;43.70
35680;DHT22;21803;53.586;10.040;2023-02-05T12:45:14;18.00;43.40
35680;DHT22;21803;53.586;10.040;2023-02-05T12:58:45;18.00;43.30
35680;DHT22;21803;53.586;10.040;2023-02-05T13:03:59;18.00;43.30
35680;DHT22;21803;53.586;10.040;2023-02-05T13:06:30;18.00;43.30
35680;DHT22;21803;53.586;10.040;2023-02-05T13:09:23;18.00;43.30
35680;DHT22;21803;53.586;10.040;2023-02-05T13:11:58;18.00;43.30
35680;DHT22;21803;53.586;10.040;2023-02-05T13:14:33;18.00;43.30
35680;DHT22;21803;53.586;10.040;2023-02-05T13:17:05;18.00;43.30
35680;DHT22;21803;53.586;10.040;2023-02-05T13:19:41;18.00;43.30
35680;DHT22;21803;53.586;10.040;2023-02-05T13:22:51;18.00;43.30
35680;DHT22;21803;53.586;10.040;2023-02-05T13:25:44;18.00;43.20
35680;DHT22;21803;53.586;10.040;2023-02-05T13:33:51;18.00;43.20
35680;DHT22;21803;53.586;10.040;2023-02-05T13:42:10;18.00;43.20
35680;DHT22;21803;53.586;10.040;2023-02-05T13:59:14;18.00;43.20
35680;DHT22;21803;53.586;10.040;2023-02-05T14:01:46;18.00;43.90
35680;DHT22;21803;53.586;10.040;2023-02-05T14:04:23;18.00;43.30
35680;DHT22;21803;53.586;10.040;2023-02-05T14:10:05;18.00;43.20
35680;DHT22;21803;53.586;10.040;2023-02-05T14:12:34;18.00;43.20
35680;DHT22;21803;53.586;10.040;2023-02-05T14:22:49;18.00;43.20
35680;DHT22;21803;53.586;10.040;2023-02-05T14:27:59;18.00;43.20
35680;DHT22;21803;53.586;10.040;2023-02-05T14:33:30;18.00;43.20
35680;DHT22;21803;53.586;10.040;2023-02-05T14:38:45;17.90;43.10
35680;DHT22;21803;53.586;10.040;2023-02-05T14:41:21;18.00;43.20
35680;DHT22;21803;53.586;10.040;2023-02-05T14:44:01;18.00;43.20
35680;DHT22;21803;53.586;10.040;2023-02-05T14:46:37;18.00;43.20
35680;DHT22;21803;53.586;10.040;2023-02-05T14:49:23;18.00;43.20
35680;DHT22;21803;53.586;10.040;2023-02-05T14:51:55;18.00;43.20
35680;DHT22;21803;53.586;10.040;2023-02-05T14:54:26;18.00;43.20
35680;DHT22;21803;53.586;10.040;2023-02-05T14:57:16;18.00;43.20
35680;DHT22;21803;53.586;10.040;2023-02-05T15:00:02;18.00;43.20
35680;DHT22;21803;53.586;10.040;2023-02-05T15:05:23;18.00;43.20
35680;DHT22;21803;53.586;10.040;2023-02-05T15:07:58;18.00;43.20
35680;DHT22;21803;53.586;10.040;2023-02-05T15:10:28;18.00;43.10
35680;DHT22;21803;53.586;10.040;2023-02-05T15:13:11;18.00;43.10
35680;DHT22;21803;53.586;10.040;2023-02-05T15:15:38;18.00;43.20
35680;DHT22;21803;53.586;10.040;2023-02-05T15:20:52;18.00;43.10
35680;DHT22;21803;53.586;10.040;2023-02-05T15:23:38;18.00;43.10
35680;DHT22;21803;53.586;10.040;2023-02-05T15:26:07;18.00;43.10
35680;DHT22;21803;53.586;10.040;2023-02-05T15:28:44;18.00;43.10
35680;DHT22;21803;53.586;10.040;2023-02-05T15:31:31;18.00;43.10
35680;DHT22;21803;53.586;10.040;2023-02-05T15:36:34;17.90;43.00
35680;DHT22;21803;53.586;10.040;2023-02-05T15:39:29;18.00;43.10
35680;DHT22;21803;53.586;10.040;2023-02-05T15:41:58;17.90;43.00
35680;DHT22;21803;53.586;10.040;2023-02-05T15:44:34;17.90;43.00
35680;DHT22;21803;53.586;10.040;2023-02-05T15:47:03;17.90;43.00
35680;DHT22;21803;53.586;10.040;2023-02-05T15:49:55;19.00;43.60
35680;DHT22;21803;53.586;10.040;2023-02-05T15:52:27;17.90;43.00
35680;DHT22;21803;53.586;10.040;2023-02-05T15:54:55;18.00;43.10
35680;DHT22;21803;53.586;10.040;2023-02-05T15:57:25;17.90;43.00
35680;DHT22;21803;53.586;10.040;2023-02-05T15:59:53;17.90;43.00
35680;DHT22;21803;53.586;10.040;2023-02-05T16:02:24;17.90;43.00
35680;DHT22;21803;53.586;10.040;2023-02-05T16:05:02;17.90;43.00
35680;DHT22;21803;53.586;10.040;2023-02-05T16:07:41;17.90;43.00
35680;DHT22;21803;53.586;10.040;2023-02-05T16:10:19;17.90;43.00
35680;DHT22;21803;53.586;10.040;2023-02-05T16:13:11;17.90;43.00
35680;DHT22;21803;53.586;10.040;2023-02-05T16:18:24;17.90;43.00
35680;DHT22;21803;53.586;10.040;2023-02-05T16:20:57;17.90;43.00
35680;DHT22;21803;53.586;10.040;2023-02-05T16:23:31;17.90;43.00
35680;DHT22;21803;53.586;10.040;2023-02-05T16:26:02;17.90;43.00
35680;DHT22;21803;53.586;10.040;2023-02-05T16:31:08;17.90;43.60
35680;DHT22;21803;53.586;10.040;2023-02-05T16:36:31;17.90;43.00
35680;DHT22;21803;53.586;10.040;2023-02-05T16:39:00;17.90;43.00
35680;DHT22;21803;53.586;10.040;2023-02-05T16:41:36;17.90;43.00
35680;DHT22;21803;53.586;10.040;2023-02-05T16:44:03;17.90;43.00
35680;DHT22;21803;53.586;10.040;2023-02-05T16:46:31;17.90;43.00
35680;DHT22;21803;53.586;10.040;2023-02-05T16:49:02;17.90;43.00
35680;DHT22;21803;53.586;10.040;2023-02-05T16:53:58;18.00;43.00
35680;DHT22;21803;53.586;10.040;2023-02-05T16:56:31;17.90;43.00
35680;DHT22;21803;53.586;10.040;2023-02-05T16:58:59;17.90;43.00
35680;DHT22;21803;53.586;10.040;2023-02-05T17:01:28;17.90;43.00
35680;DHT22;21803;53.586;10.040;2023-02-05T17:03:55;17.90;42.90
35680;DHT22;21803;53.586;10.040;2023-02-05T17:06:21;17.90;42.90
35680;DHT22;21803;53.586;10.040;2023-02-05T17:08:52;17.90;42.90
35680;DHT22;21803;53.586;10.040;2023-02-05T17:14:25;17.90;42.90
35680;DHT22;21803;53.586;10.040;2023-02-05T17:16:55;17.90;43.00
35680;DHT22;21803;53.586;10.040;2023-02-05T17:19:25;17.90;43.00
35680;DHT22;21803;53.586;10.040;2023-02-05T17:24:41;17.90;42.90
35680;DHT22;21803;53.586;10.040;2023-02-05T17:27:25;17.90;43.00
35680;DHT22;21803;53.586;10.040;2023-02-05T17:29:52;17.90;42.90
35680;DHT22;21803;53.586;10.040;2023-02-05T17:32:18;17.90;42.90
35680;DHT22;21803;53.586;10.040;2023-02-05T17:34:45;17.90;42.90
35680;DHT22;21803;53.586;10.040;2023-02-05T17:37:11;17.90;43.00
35680;DHT22;21803;53.586;10.040;2023-02-05T17:39:37;17.90;42.90
35680;DHT22;21803;53.586;10.040;2023-02-05T17:42:03;17.90;42.90
35680;DHT22;21803;53.586;10.040;2023-02-05T17:44:30;17.90;42.90
35680;DHT22;21803;53.586;10.040;2023-02-05T17:46:59;17.90;42.90
35680;DHT22;21803;53.586;10.040;2023-02-05T17:49:25;17.90;42.90
35680;DHT22;21803;53.586;10.040;2023-02-05T17:51:51;17.90;42.90
35680;DHT22;21803;53.586;10.040;2023-02-05T17:54:22;17.90;42.90
35680;DHT22;21803;53.586;10.040;2023-02-05T17:56:50;17.90;42.90
35680;DHT22;21803;53.586;10.040;2023-02-05T17:59:19;17.90;42.90
35680;DHT22;21803;53.586;10.040;2023-02-05T18:01:46;17.90;42.90
35680;DHT22;21803;53.586;10.040;2023-02-05T18:04:11;17.90;42.90
35680;DHT22;21803;53.586;10.040;2023-02-05T18:06:38;17.90;42.90
35680;DHT22;21803;53.586;10.040;2023-02-05T18:09:04;17.90;43.00
35680;DHT22;21803;53.586;10.040;2023-02-05T18:11:30;17.90;42.90
35680;DHT22;21803;53.586;10.040;2023-02-05T18:13:56;17.90;42.90
35680;DHT22;21803;53.586;10.040;2023-02-05T18:16:21;17.90;42.90
35680;DHT22;21803;53.586;10.040;2023-02-05T18:18:47;17.90;42.90